sensor_id;sensor_type;location;lat;lon;timestamp;P1;durP1;ratioP1;P2;durP2;ratioP2
43841;SDS011;29495;49.970;20.842;2022-11-11T00:02:12;28.10;;;15.80;;
43841;SDS011;29495;49.970;20.842;2022-11-11T00:04:57;27.20;;;14.60;;
43841;SDS011;29495;49.970;20.842;2022-11-11T00:07:41;27.75;;;15.07;;
43841;SDS011;29495;49.970;20.842;2022-11-11T00:10:27;24.30;;;14.20;;
43841;SDS011;29495;49.970;20.842;2022-11-11T00:13:13;26.20;;;14.32;;
43841;SDS011;29495;49.970;20.842;2022-11-11T00:18:48;29.25;;;15.65;;
43841;SDS011;29495;49.970;20.842;2022-11-11T00:21:52;26.27;;;14.45;;
43841;SDS011;29495;49.970;20.842;2022-11-11T00:24:55;23.80;;;14.13;;
43841;SDS011;29495;49.970;20.842;2022-11-11T00:27:49;23.13;;;13.63;;
43841;SDS011;29495;49.970;20.842;2022-11-11T00:30:34;22.30;;;13.05;;
43841;SDS011;29495;49.970;20.842;2022-11-11T00:33:18;23.05;;;13.30;;
43841;SDS011;29495;49.970;20.842;2022-11-11T00:36:04;22.42;;;13.10;;
43841;SDS011;29495;49.970;20.842;2022-11-11T00:38:50;21.70;;;12.85;;
43841;SDS011;29495;49.970;20.842;2022-11-11T00:41:36;20.35;;;12.43;;
43841;SDS011;29495;49.970;20.842;2022-11-11T00:44:20;21.27;;;11.38;;
43841;SDS011;29495;49.970;20.842;2022-11-11T00:47:05;22.10;;;13.27;;
43841;SDS011;29495;49.970;20.842;2022-11-11T00:50:13;22.33;;;13.55;;
43841;SDS011;29495;49.970;20.842;2022-11-11T00:53:27;21.63;;;12.93;;
43841;SDS011;29495;49.970;20.842;2022-11-11T00:56:14;24.85;;;13.40;;
43841;SDS011;29495;49.970;20.842;2022-11-11T00:58:59;25.27;;;14.63;;
43841;SDS011;29495;49.970;20.842;2022-11-11T01:01:43;27.88;;;14.50;;
43841;SDS011;29495;49.970;20.842;2022-11-11T01:04:28;22.55;;;13.68;;
43841;SDS011;29495;49.970;20.842;2022-11-11T01:07:12;22.35;;;14.05;;
43841;SDS011;29495;49.970;20.842;2022-11-11T01:09:57;21.88;;;12.82;;
43841;SDS011;29495;49.970;20.842;2022-11-11T01:12:42;26.27;;;14.48;;
43841;SDS011;29495;49.970;20.842;2022-11-11T01:15:27;23.33;;;13.52;;
43841;SDS011;29495;49.970;20.842;2022-11-11T01:18:13;25.33;;;13.75;;
43841;SDS011;29495;49.970;20.842;2022-11-11T01:21:03;21.45;;;13.65;;
43841;SDS011;29495;49.970;20.842;2022-11-11T01:23:51;22.00;;;12.25;;
43841;SDS011;29495;49.970;20.842;2022-11-11T01:26:36;24.17;;;13.43;;
43841;SDS011;29495;49.970;20.842;2022-11-11T01:29:21;20.25;;;11.50;;
43841;SDS011;29495;49.970;20.842;2022-11-11T01:32:06;20.30;;;12.00;;
43841;SDS011;29495;49.970;20.842;2022-11-11T01:34:50;19.50;;;11.75;;
43841;SDS011;29495;49.970;20.842;2022-11-11T01:37:34;21.25;;;11.98;;
43841;SDS011;29495;49.970;20.842;2022-11-11T01:40:19;16.08;;;10.32;;
43841;SDS011;29495;49.970;20.842;2022-11-11T01:48:42;14.93;;;10.00;;
43841;SDS011;29495;49.970;20.842;2022-11-11T02:00:28;16.05;;;9.68;;
43841;SDS011;29495;49.970;20.842;2022-11-11T02:03:13;14.90;;;9.75;;
43841;SDS011;29495;49.970;20.842;2022-11-11T02:05:57;14.63;;;9.02;;
43841;SDS011;29495;49.970;20.842;2022-11-11T02:08:43;14.35;;;8.88;;
43841;SDS011;29495;49.970;20.842;2022-11-11T02:11:29;15.88;;;9.10;;
43841;SDS011;29495;49.970;20.842;2022-11-11T02:14:36;16.90;;;9.18;;
43841;SDS011;29495;49.970;20.842;2022-11-11T02:17:28;14.07;;;8.20;;
43841;SDS011;29495;49.970;20.842;2022-11-11T02:20:15;16.10;;;8.95;;
43841;SDS011;29495;49.970;20.842;2022-11-11T02:26:04;15.50;;;8.95;;
43841;SDS011;29495;49.970;20.842;2022-11-11T02:28:50;14.50;;;8.02;;
43841;SDS011;29495;49.970;20.842;2022-11-11T02:31:36;12.68;;;8.35;;
43841;SDS011;29495;49.970;20.842;2022-11-11T02:34:22;15.70;;;8.68;;
43841;SDS011;29495;49.970;20.842;2022-11-11T02:37:17;14.25;;;9.30;;
43841;SDS011;29495;49.970;20.842;2022-11-11T02:40:04;15.13;;;9.63;;
43841;SDS011;29495;49.970;20.842;2022-11-11T02:42:51;14.25;;;8.57;;
43841;SDS011;29495;49.970;20.842;2022-11-11T02:45:36;16.85;;;9.23;;
43841;SDS011;29495;49.970;20.842;2022-11-11T02:48:21;14.65;;;9.38;;
43841;SDS011;29495;49.970;20.842;2022-11-11T02:51:06;13.32;;;8.68;;
43841;SDS011;29495;49.970;20.842;2022-11-11T02:53:51;13.55;;;8.35;;
43841;SDS011;29495;49.970;20.842;2022-11-11T02:56:41;13.38;;;8.40;;
43841;SDS011;29495;49.970;20.842;2022-11-11T02:59:44;16.35;;;9.65;;
43841;SDS011;29495;49.970;20.842;2022-11-11T03:02:30;14.45;;;9.10;;
43841;SDS011;29495;49.970;20.842;2022-11-11T03:05:14;15.95;;;8.90;;
43841;SDS011;29495;49.970;20.842;2022-11-11T03:07:59;13.68;;;8.73;;
43841;SDS011;29495;49.970;20.842;2022-11-11T03:10:43;13.73;;;9.07;;
43841;SDS011;29495;49.970;20.842;2022-11-11T03:13:28;13.02;;;8.38;;
43841;SDS011;29495;49.970;20.842;2022-11-11T03:16:12;13.45;;;7.85;;
43841;SDS011;29495;49.970;20.842;2022-11-11T03:19:17;13.02;;;7.43;;
43841;SDS011;29495;49.970;20.842;2022-11-11T03:22:02;11.52;;;7.88;;
43841;SDS011;29495;49.970;20.842;2022-11-11T03:24:46;12.52;;;8.57;;
43841;SDS011;29495;49.970;20.842;2022-11-11T03:27:50;11.43;;;7.55;;
43841;SDS011;29495;49.970;20.842;2022-11-11T03:30:35;12.57;;;7.75;;
43841;SDS011;29495;49.970;20.842;2022-11-11T03:33:20;9.90;;;7.05;;
43841;SDS011;29495;49.970;20.842;2022-11-11T03:36:05;14.70;;;7.28;;
43841;SDS011;29495;49.970;20.842;2022-11-11T03:38:50;12.40;;;7.32;;
43841;SDS011;29495;49.970;20.842;2022-11-11T03:41:34;10.10;;;7.07;;
43841;SDS011;29495;49.970;20.842;2022-11-11T03:44:19;12.07;;;7.90;;
43841;SDS011;29495;49.970;20.842;2022-11-11T03:47:03;11.48;;;7.78;;
43841;SDS011;29495;49.970;20.842;2022-11-11T03:49:47;12.13;;;7.68;;
43841;SDS011;29495;49.970;20.842;2022-11-11T03:52:32;11.52;;;7.85;;
43841;SDS011;29495;49.970;20.842;2022-11-11T03:55:16;12.77;;;7.28;;
43841;SDS011;29495;49.970;20.842;2022-11-11T03:58:01;11.57;;;7.75;;
43841;SDS011;29495;49.970;20.842;2022-11-11T04:00:46;10.77;;;7.00;;
43841;SDS011;29495;49.970;20.842;2022-11-11T04:03:30;12.45;;;7.15;;
43841;SDS011;29495;49.970;20.842;2022-11-11T04:06:34;11.18;;;6.97;;
43841;SDS011;29495;49.970;20.842;2022-11-11T04:09:37;11.55;;;7.20;;
43841;SDS011;29495;49.970;20.842;2022-11-11T04:12:41;10.07;;;7.28;;
43841;SDS011;29495;49.970;20.842;2022-11-11T04:15:44;11.15;;;7.60;;
43841;SDS011;29495;49.970;20.842;2022-11-11T04:18:48;11.20;;;7.00;;
43841;SDS011;29495;49.970;20.842;2022-11-11T04:21:51;10.10;;;6.80;;
43841;SDS011;29495;49.970;20.842;2022-11-11T04:24:35;9.90;;;6.40;;
43841;SDS011;29495;49.970;20.842;2022-11-11T04:27:39;10.98;;;6.90;;
43841;SDS011;29495;49.970;20.842;2022-11-11T04:30:23;11.70;;;7.15;;
43841;SDS011;29495;49.970;20.842;2022-11-11T04:33:08;9.77;;;6.13;;
43841;SDS011;29495;49.970;20.842;2022-11-11T04:35:53;10.68;;;6.63;;
43841;SDS011;29495;49.970;20.842;2022-11-11T04:38:37;11.05;;;6.65;;
43841;SDS011;29495;49.970;20.842;2022-11-11T04:41:40;10.50;;;6.53;;
43841;SDS011;29495;49.970;20.842;2022-11-11T04:44:25;11.05;;;7.43;;
43841;SDS011;29495;49.970;20.842;2022-11-11T04:47:29;11.70;;;7.63;;
43841;SDS011;29495;49.970;20.842;2022-11-11T04:50:14;11.07;;;7.50;;
43841;SDS011;29495;49.970;20.842;2022-11-11T04:52:58;11.35;;;7.65;;
43841;SDS011;29495;49.970;20.842;2022-11-11T04:55:44;11.23;;;6.72;;
43841;SDS011;29495;49.970;20.842;2022-11-11T04:58:47;9.88;;;6.88;;
43841;SDS011;29495;49.970;20.842;2022-11-11T05:01:52;10.68;;;7.18;;
43841;SDS011;29495;49.970;20.842;2022-11-11T05:04:55;10.13;;;6.70;;
43841;SDS011;29495;49.970;20.842;2022-11-11T05:07:40;13.07;;;7.97;;
43841;SDS011;29495;49.970;20.842;2022-11-11T05:10:43;11.68;;;6.90;;
43841;SDS011;29495;49.970;20.842;2022-11-11T05:13:27;11.65;;;7.10;;
43841;SDS011;29495;49.970;20.842;2022-11-11T05:16:32;12.35;;;8.30;;
43841;SDS011;29495;49.970;20.842;2022-11-11T05:19:39;13.63;;;8.32;;
43841;SDS011;29495;49.970;20.842;2022-11-11T05:22:48;14.52;;;9.05;;
43841;SDS011;29495;49.970;20.842;2022-11-11T05:25:33;14.23;;;8.38;;
43841;SDS011;29495;49.970;20.842;2022-11-11T05:28:17;12.80;;;8.00;;
43841;SDS011;29495;49.970;20.842;2022-11-11T05:31:02;9.07;;;7.13;;
43841;SDS011;29495;49.970;20.842;2022-11-11T05:33:46;11.10;;;7.25;;
43841;SDS011;29495;49.970;20.842;2022-11-11T05:36:30;14.35;;;8.07;;
43841;SDS011;29495;49.970;20.842;2022-11-11T05:39:15;11.90;;;7.47;;
43841;SDS011;29495;49.970;20.842;2022-11-11T05:42:00;11.18;;;6.88;;
43841;SDS011;29495;49.970;20.842;2022-11-11T05:44:44;11.27;;;6.82;;
43841;SDS011;29495;49.970;20.842;2022-11-11T05:47:29;11.20;;;7.10;;
43841;SDS011;29495;49.970;20.842;2022-11-11T05:50:14;9.68;;;7.00;;
43841;SDS011;29495;49.970;20.842;2022-11-11T05:52:59;12.38;;;7.72;;
43841;SDS011;29495;49.970;20.842;2022-11-11T05:55:44;11.55;;;8.13;;
43841;SDS011;29495;49.970;20.842;2022-11-11T05:58:28;11.73;;;7.32;;
43841;SDS011;29495;49.970;20.842;2022-11-11T06:01:13;11.82;;;7.65;;
43841;SDS011;29495;49.970;20.842;2022-11-11T06:03:57;11.85;;;7.40;;
43841;SDS011;29495;49.970;20.842;2022-11-11T06:06:42;9.93;;;6.63;;
43841;SDS011;29495;49.970;20.842;2022-11-11T06:09:27;11.00;;;7.35;;
43841;SDS011;29495;49.970;20.842;2022-11-11T06:12:11;12.73;;;7.88;;
43841;SDS011;29495;49.970;20.842;2022-11-11T06:14:56;12.10;;;7.30;;
43841;SDS011;29495;49.970;20.842;2022-11-11T06:17:40;10.98;;;7.60;;
43841;SDS011;29495;49.970;20.842;2022-11-11T06:20:25;12.60;;;7.82;;
43841;SDS011;29495;49.970;20.842;2022-11-11T06:23:09;11.13;;;7.13;;
43841;SDS011;29495;49.970;20.842;2022-11-11T06:25:54;9.63;;;6.90;;
43841;SDS011;29495;49.970;20.842;2022-11-11T06:28:59;16.83;;;8.38;;
43841;SDS011;29495;49.970;20.842;2022-11-11T06:31:43;13.55;;;7.97;;
43841;SDS011;29495;49.970;20.842;2022-11-11T06:34:28;13.75;;;8.32;;
43841;SDS011;29495;49.970;20.842;2022-11-11T06:37:12;11.43;;;7.90;;
43841;SDS011;29495;49.970;20.842;2022-11-11T06:39:57;13.10;;;8.07;;
43841;SDS011;29495;49.970;20.842;2022-11-11T06:42:41;12.20;;;8.57;;
43841;SDS011;29495;49.970;20.842;2022-11-11T06:45:27;10.98;;;8.20;;
43841;SDS011;29495;49.970;20.842;2022-11-11T06:48:12;13.15;;;8.63;;
43841;SDS011;29495;49.970;20.842;2022-11-11T06:51:01;12.77;;;8.07;;
43841;SDS011;29495;49.970;20.842;2022-11-11T06:53:48;10.63;;;7.60;;
43841;SDS011;29495;49.970;20.842;2022-11-11T06:56:32;12.20;;;8.63;;
43841;SDS011;29495;49.970;20.842;2022-11-11T06:59:17;12.48;;;7.43;;
43841;SDS011;29495;49.970;20.842;2022-11-11T07:02:01;19.75;;;9.77;;
43841;SDS011;29495;49.970;20.842;2022-11-11T07:04:46;15.07;;;9.30;;
43841;SDS011;29495;49.970;20.842;2022-11-11T07:07:31;14.90;;;9.77;;
43841;SDS011;29495;49.970;20.842;2022-11-11T07:10:15;16.90;;;11.35;;
43841;SDS011;29495;49.970;20.842;2022-11-11T07:13:00;22.63;;;14.85;;
43841;SDS011;29495;49.970;20.842;2022-11-11T07:15:45;19.75;;;13.50;;
43841;SDS011;29495;49.970;20.842;2022-11-11T07:18:30;15.30;;;10.63;;
43841;SDS011;29495;49.970;20.842;2022-11-11T07:21:15;13.95;;;10.00;;
43841;SDS011;29495;49.970;20.842;2022-11-11T07:23:59;14.55;;;7.95;;
43841;SDS011;29495;49.970;20.842;2022-11-11T07:26:44;9.88;;;7.03;;
43841;SDS011;29495;49.970;20.842;2022-11-11T07:29:28;11.27;;;7.10;;
43841;SDS011;29495;49.970;20.842;2022-11-11T07:32:15;10.20;;;6.50;;
43841;SDS011;29495;49.970;20.842;2022-11-11T07:35:00;9.77;;;6.50;;
43841;SDS011;29495;49.970;20.842;2022-11-11T07:37:45;11.23;;;6.35;;
43841;SDS011;29495;49.970;20.842;2022-11-11T07:40:30;12.55;;;7.00;;
43841;SDS011;29495;49.970;20.842;2022-11-11T07:43:14;9.45;;;6.55;;
43841;SDS011;29495;49.970;20.842;2022-11-11T07:45:59;14.30;;;8.15;;
43841;SDS011;29495;49.970;20.842;2022-11-11T07:48:43;14.27;;;10.02;;
43841;SDS011;29495;49.970;20.842;2022-11-11T07:51:28;20.45;;;13.73;;
43841;SDS011;29495;49.970;20.842;2022-11-11T07:54:12;22.10;;;16.17;;
43841;SDS011;29495;49.970;20.842;2022-11-11T07:56:56;20.15;;;15.18;;
43841;SDS011;29495;49.970;20.842;2022-11-11T07:59:41;23.23;;;14.07;;
43841;SDS011;29495;49.970;20.842;2022-11-11T08:02:26;16.90;;;11.80;;
43841;SDS011;29495;49.970;20.842;2022-11-11T08:05:10;18.52;;;11.48;;
43841;SDS011;29495;49.970;20.842;2022-11-11T08:07:55;16.45;;;10.68;;
43841;SDS011;29495;49.970;20.842;2022-11-11T08:10:44;22.88;;;12.73;;
43841;SDS011;29495;49.970;20.842;2022-11-11T08:13:29;20.15;;;12.23;;
43841;SDS011;29495;49.970;20.842;2022-11-11T08:16:27;18.48;;;11.23;;
43841;SDS011;29495;49.970;20.842;2022-11-11T08:19:11;21.05;;;12.23;;
43841;SDS011;29495;49.970;20.842;2022-11-11T08:21:56;25.58;;;14.75;;
43841;SDS011;29495;49.970;20.842;2022-11-11T08:24:41;28.88;;;16.30;;
43841;SDS011;29495;49.970;20.842;2022-11-11T08:27:26;31.63;;;18.15;;
43841;SDS011;29495;49.970;20.842;2022-11-11T08:30:11;24.17;;;15.20;;
43841;SDS011;29495;49.970;20.842;2022-11-11T08:33:05;22.73;;;13.48;;
43841;SDS011;29495;49.970;20.842;2022-11-11T08:35:50;20.80;;;12.70;;
43841;SDS011;29495;49.970;20.842;2022-11-11T08:38:38;22.50;;;12.90;;
43841;SDS011;29495;49.970;20.842;2022-11-11T08:41:23;16.83;;;10.88;;
43841;SDS011;29495;49.970;20.842;2022-11-11T08:44:08;15.30;;;9.38;;
43841;SDS011;29495;49.970;20.842;2022-11-11T08:46:52;17.98;;;10.52;;
43841;SDS011;29495;49.970;20.842;2022-11-11T08:49:37;16.08;;;9.20;;
43841;SDS011;29495;49.970;20.842;2022-11-11T08:52:21;14.27;;;8.80;;
43841;SDS011;29495;49.970;20.842;2022-11-11T08:55:06;15.50;;;8.65;;
43841;SDS011;29495;49.970;20.842;2022-11-11T08:58:00;13.48;;;7.50;;
43841;SDS011;29495;49.970;20.842;2022-11-11T09:00:46;15.43;;;8.50;;
43841;SDS011;29495;49.970;20.842;2022-11-11T09:03:31;15.43;;;7.82;;
43841;SDS011;29495;49.970;20.842;2022-11-11T09:06:15;14.40;;;8.75;;
43841;SDS011;29495;49.970;20.842;2022-11-11T09:09:00;14.27;;;8.07;;
43841;SDS011;29495;49.970;20.842;2022-11-11T09:11:45;13.32;;;7.68;;
43841;SDS011;29495;49.970;20.842;2022-11-11T09:14:29;15.98;;;8.75;;
43841;SDS011;29495;49.970;20.842;2022-11-11T09:17:14;12.85;;;8.32;;
43841;SDS011;29495;49.970;20.842;2022-11-11T09:19:58;11.80;;;7.45;;
43841;SDS011;29495;49.970;20.842;2022-11-11T09:22:44;18.63;;;9.35;;
43841;SDS011;29495;49.970;20.842;2022-11-11T09:25:29;18.35;;;10.55;;
43841;SDS011;29495;49.970;20.842;2022-11-11T09:28:14;18.48;;;8.95;;
43841;SDS011;29495;49.970;20.842;2022-11-11T09:30:59;15.23;;;9.27;;
43841;SDS011;29495;49.970;20.842;2022-11-11T09:33:44;14.70;;;9.10;;
43841;SDS011;29495;49.970;20.842;2022-11-11T09:36:28;16.95;;;9.27;;
43841;SDS011;29495;49.970;20.842;2022-11-11T09:39:13;17.77;;;10.00;;
43841;SDS011;29495;49.970;20.842;2022-11-11T09:42:04;13.38;;;8.00;;
43841;SDS011;29495;49.970;20.842;2022-11-11T09:48:03;11.10;;;6.20;;
43841;SDS011;29495;49.970;20.842;2022-11-11T09:51:06;8.80;;;5.60;;
43841;SDS011;29495;49.970;20.842;2022-11-11T09:54:00;10.73;;;5.22;;
43841;SDS011;29495;49.970;20.842;2022-11-11T09:56:50;8.82;;;5.78;;
43841;SDS011;29495;49.970;20.842;2022-11-11T09:59:39;9.93;;;5.82;;
43841;SDS011;29495;49.970;20.842;2022-11-11T10:02:34;9.73;;;6.40;;
43841;SDS011;29495;49.970;20.842;2022-11-11T10:05:27;10.95;;;6.18;;
43841;SDS011;29495;49.970;20.842;2022-11-11T10:08:25;11.32;;;6.07;;
43841;SDS011;29495;49.970;20.842;2022-11-11T10:11:24;12.00;;;7.47;;
43841;SDS011;29495;49.970;20.842;2022-11-11T10:14:18;9.85;;;6.25;;
43841;SDS011;29495;49.970;20.842;2022-11-11T10:20:25;7.43;;;4.55;;
43841;SDS011;29495;49.970;20.842;2022-11-11T10:23:14;8.63;;;4.10;;
43841;SDS011;29495;49.970;20.842;2022-11-11T10:26:09;8.52;;;4.53;;
43841;SDS011;29495;49.970;20.842;2022-11-11T10:29:03;6.97;;;4.57;;
43841;SDS011;29495;49.970;20.842;2022-11-11T10:31:56;7.50;;;4.70;;
43841;SDS011;29495;49.970;20.842;2022-11-11T10:34:45;9.52;;;5.22;;
43841;SDS011;29495;49.970;20.842;2022-11-11T10:37:36;6.80;;;4.28;;
43841;SDS011;29495;49.970;20.842;2022-11-11T10:40:24;7.78;;;4.78;;
43841;SDS011;29495;49.970;20.842;2022-11-11T10:43:18;8.77;;;5.10;;
43841;SDS011;29495;49.970;20.842;2022-11-11T10:52:04;9.32;;;5.50;;
43841;SDS011;29495;49.970;20.842;2022-11-11T10:55:34;7.50;;;4.45;;
43841;SDS011;29495;49.970;20.842;2022-11-11T11:01:33;12.60;;;6.70;;
43841;SDS011;29495;49.970;20.842;2022-11-11T11:07:20;10.00;;;6.30;;
43841;SDS011;29495;49.970;20.842;2022-11-11T11:10:13;11.70;;;7.07;;
43841;SDS011;29495;49.970;20.842;2022-11-11T11:13:12;7.85;;;5.72;;
43841;SDS011;29495;49.970;20.842;2022-11-11T11:22:00;10.52;;;6.88;;
43841;SDS011;29495;49.970;20.842;2022-11-11T11:24:45;12.38;;;7.70;;
43841;SDS011;29495;49.970;20.842;2022-11-11T11:27:30;11.68;;;7.03;;
43841;SDS011;29495;49.970;20.842;2022-11-11T11:30:16;14.98;;;8.65;;
43841;SDS011;29495;49.970;20.842;2022-11-11T11:33:06;12.27;;;8.10;;
43841;SDS011;29495;49.970;20.842;2022-11-11T11:35:51;9.65;;;5.75;;
43841;SDS011;29495;49.970;20.842;2022-11-11T11:38:40;7.80;;;4.60;;
43841;SDS011;29495;49.970;20.842;2022-11-11T11:44:24;8.27;;;4.72;;
43841;SDS011;29495;49.970;20.842;2022-11-11T12:02:20;7.75;;;4.95;;
43841;SDS011;29495;49.970;20.842;2022-11-11T12:05:54;11.90;;;5.60;;
43841;SDS011;29495;49.970;20.842;2022-11-11T12:12:02;17.15;;;7.30;;
43841;SDS011;29495;49.970;20.842;2022-11-11T12:21:12;7.55;;;3.88;;
43841;SDS011;29495;49.970;20.842;2022-11-11T12:24:07;6.85;;;2.88;;
43841;SDS011;29495;49.970;20.842;2022-11-11T12:30:16;5.90;;;3.20;;
43841;SDS011;29495;49.970;20.842;2022-11-11T12:36:35;4.75;;;2.63;;
43841;SDS011;29495;49.970;20.842;2022-11-11T13:16:51;6.07;;;3.15;;
43841;SDS011;29495;49.970;20.842;2022-11-11T13:19:47;6.28;;;3.95;;
43841;SDS011;29495;49.970;20.842;2022-11-11T13:23:08;6.28;;;3.83;;
43841;SDS011;29495;49.970;20.842;2022-11-11T13:25:54;8.90;;;3.60;;
43841;SDS011;29495;49.970;20.842;2022-11-11T13:28:46;6.15;;;3.53;;
43841;SDS011;29495;49.970;20.842;2022-11-11T13:31:33;7.95;;;4.10;;
43841;SDS011;29495;49.970;20.842;2022-11-11T13:34:21;7.03;;;4.32;;
43841;SDS011;29495;49.970;20.842;2022-11-11T13:37:08;9.13;;;4.75;;
43841;SDS011;29495;49.970;20.842;2022-11-11T13:43:21;5.38;;;3.40;;
43841;SDS011;29495;49.970;20.842;2022-11-11T13:49:23;7.75;;;4.05;;
43841;SDS011;29495;49.970;20.842;2022-11-11T13:52:21;6.15;;;3.75;;
43841;SDS011;29495;49.970;20.842;2022-11-11T13:55:28;6.13;;;3.70;;
43841;SDS011;29495;49.970;20.842;2022-11-11T13:58:32;7.30;;;4.00;;
43841;SDS011;29495;49.970;20.842;2022-11-11T14:01:22;7.22;;;3.83;;
43841;SDS011;29495;49.970;20.842;2022-11-11T14:04:08;6.28;;;3.38;;
43841;SDS011;29495;49.970;20.842;2022-11-11T14:06:54;5.82;;;3.80;;
43841;SDS011;29495;49.970;20.842;2022-11-11T14:12:37;5.85;;;3.53;;
43841;SDS011;29495;49.970;20.842;2022-11-11T14:18:37;6.47;;;4.38;;
43841;SDS011;29495;49.970;20.842;2022-11-11T14:22:16;10.52;;;4.35;;
43841;SDS011;29495;49.970;20.842;2022-11-11T14:27:29;7.60;;;3.80;;
43841;SDS011;29495;49.970;20.842;2022-11-11T14:30:31;6.43;;;3.85;;
43841;SDS011;29495;49.970;20.842;2022-11-11T14:36:40;6.35;;;3.65;;
43841;SDS011;29495;49.970;20.842;2022-11-11T14:39:37;4.68;;;3.58;;
43841;SDS011;29495;49.970;20.842;2022-11-11T15:01:03;8.25;;;4.15;;
43841;SDS011;29495;49.970;20.842;2022-11-11T15:04:00;6.50;;;4.20;;
43841;SDS011;29495;49.970;20.842;2022-11-11T15:06:51;6.03;;;4.20;;
43841;SDS011;29495;49.970;20.842;2022-11-11T15:15:26;10.13;;;4.63;;
43841;SDS011;29495;49.970;20.842;2022-11-11T15:37:10;8.70;;;5.35;;
43841;SDS011;29495;49.970;20.842;2022-11-11T15:39:58;10.05;;;5.80;;
43841;SDS011;29495;49.970;20.842;2022-11-11T15:42:43;12.40;;;6.95;;
43841;SDS011;29495;49.970;20.842;2022-11-11T15:45:32;12.90;;;7.53;;
43841;SDS011;29495;49.970;20.842;2022-11-11T15:48:21;14.07;;;8.95;;
43841;SDS011;29495;49.970;20.842;2022-11-11T15:54:23;21.77;;;11.48;;
43841;SDS011;29495;49.970;20.842;2022-11-11T15:57:20;21.85;;;11.95;;
43841;SDS011;29495;49.970;20.842;2022-11-11T16:00:19;23.52;;;12.45;;
43841;SDS011;29495;49.970;20.842;2022-11-11T16:03:18;28.60;;;14.93;;
43841;SDS011;29495;49.970;20.842;2022-11-11T16:06:13;38.05;;;20.20;;
43841;SDS011;29495;49.970;20.842;2022-11-11T16:08:58;41.95;;;21.40;;
43841;SDS011;29495;49.970;20.842;2022-11-11T16:11:43;49.45;;;24.75;;
43841;SDS011;29495;49.970;20.842;2022-11-11T16:14:31;51.78;;;25.40;;
43841;SDS011;29495;49.970;20.842;2022-11-11T16:17:24;55.92;;;28.15;;
43841;SDS011;29495;49.970;20.842;2022-11-11T16:20:13;69.40;;;32.60;;
43841;SDS011;29495;49.970;20.842;2022-11-11T16:23:03;71.47;;;34.08;;
43841;SDS011;29495;49.970;20.842;2022-11-11T16:25:50;68.38;;;33.88;;
43841;SDS011;29495;49.970;20.842;2022-11-11T16:28:37;69.78;;;33.83;;
43841;SDS011;29495;49.970;20.842;2022-11-11T16:37:12;69.88;;;36.40;;
43841;SDS011;29495;49.970;20.842;2022-11-11T16:40:42;82.03;;;40.13;;
43841;SDS011;29495;49.970;20.842;2022-11-11T16:43:21;70.03;;;38.25;;
43841;SDS011;29495;49.970;20.842;2022-11-11T16:46:14;65.90;;;35.65;;
43841;SDS011;29495;49.970;20.842;2022-11-11T16:49:20;61.15;;;32.28;;
43841;SDS011;29495;49.970;20.842;2022-11-11T16:52:16;57.63;;;31.00;;
43841;SDS011;29495;49.970;20.842;2022-11-11T16:55:04;54.53;;;28.77;;
43841;SDS011;29495;49.970;20.842;2022-11-11T16:57:51;50.95;;;27.10;;
43841;SDS011;29495;49.970;20.842;2022-11-11T17:00:36;45.97;;;22.75;;
43841;SDS011;29495;49.970;20.842;2022-11-11T17:03:22;41.60;;;21.45;;
43841;SDS011;29495;49.970;20.842;2022-11-11T17:06:10;42.72;;;22.20;;
43841;SDS011;29495;49.970;20.842;2022-11-11T17:08:55;41.83;;;21.83;;
43841;SDS011;29495;49.970;20.842;2022-11-11T17:11:41;40.65;;;22.17;;
43841;SDS011;29495;49.970;20.842;2022-11-11T17:14:29;33.92;;;19.60;;
43841;SDS011;29495;49.970;20.842;2022-11-11T17:17:16;29.98;;;16.02;;
43841;SDS011;29495;49.970;20.842;2022-11-11T17:20:09;28.25;;;13.88;;
43841;SDS011;29495;49.970;20.842;2022-11-11T17:22:55;25.13;;;13.45;;
43841;SDS011;29495;49.970;20.842;2022-11-11T17:25:40;24.65;;;14.55;;
43841;SDS011;29495;49.970;20.842;2022-11-11T17:28:26;20.75;;;11.35;;
43841;SDS011;29495;49.970;20.842;2022-11-11T17:31:13;22.80;;;13.45;;
43841;SDS011;29495;49.970;20.842;2022-11-11T17:34:03;31.88;;;15.70;;
43841;SDS011;29495;49.970;20.842;2022-11-11T17:36:49;34.70;;;17.90;;
43841;SDS011;29495;49.970;20.842;2022-11-11T17:39:33;39.38;;;19.48;;
43841;SDS011;29495;49.970;20.842;2022-11-11T17:42:18;38.70;;;19.77;;
43841;SDS011;29495;49.970;20.842;2022-11-11T17:45:03;42.45;;;20.58;;
43841;SDS011;29495;49.970;20.842;2022-11-11T17:47:48;44.55;;;21.50;;
43841;SDS011;29495;49.970;20.842;2022-11-11T17:50:34;39.45;;;20.02;;
43841;SDS011;29495;49.970;20.842;2022-11-11T17:53:20;38.63;;;19.92;;
43841;SDS011;29495;49.970;20.842;2022-11-11T17:56:04;33.30;;;17.58;;
43841;SDS011;29495;49.970;20.842;2022-11-11T17:58:50;32.30;;;17.27;;
43841;SDS011;29495;49.970;20.842;2022-11-11T18:01:35;30.60;;;16.50;;
43841;SDS011;29495;49.970;20.842;2022-11-11T18:04:20;32.92;;;17.15;;
43841;SDS011;29495;49.970;20.842;2022-11-11T18:07:05;38.00;;;20.80;;
43841;SDS011;29495;49.970;20.842;2022-11-11T18:09:50;46.30;;;24.83;;
43841;SDS011;29495;49.970;20.842;2022-11-11T18:12:34;46.17;;;23.80;;
43841;SDS011;29495;49.970;20.842;2022-11-11T18:15:19;45.00;;;22.70;;
43841;SDS011;29495;49.970;20.842;2022-11-11T18:18:05;56.15;;;27.92;;
43841;SDS011;29495;49.970;20.842;2022-11-11T18:20:50;49.53;;;25.05;;
43841;SDS011;29495;49.970;20.842;2022-11-11T18:23:35;58.60;;;27.10;;
43841;SDS011;29495;49.970;20.842;2022-11-11T18:26:21;54.13;;;27.90;;
43841;SDS011;29495;49.970;20.842;2022-11-11T18:29:09;58.00;;;27.70;;
43841;SDS011;29495;49.970;20.842;2022-11-11T18:31:53;55.28;;;26.58;;
43841;SDS011;29495;49.970;20.842;2022-11-11T18:34:38;46.85;;;23.98;;
43841;SDS011;29495;49.970;20.842;2022-11-11T18:37:23;44.45;;;23.65;;
43841;SDS011;29495;49.970;20.842;2022-11-11T18:40:07;50.55;;;24.15;;
43841;SDS011;29495;49.970;20.842;2022-11-11T18:42:52;40.58;;;19.63;;
43841;SDS011;29495;49.970;20.842;2022-11-11T18:45:38;38.10;;;19.80;;
43841;SDS011;29495;49.970;20.842;2022-11-11T18:48:22;34.33;;;17.80;;
43841;SDS011;29495;49.970;20.842;2022-11-11T18:51:07;31.77;;;17.88;;
43841;SDS011;29495;49.970;20.842;2022-11-11T18:53:53;33.25;;;17.73;;
43841;SDS011;29495;49.970;20.842;2022-11-11T18:56:38;30.42;;;16.13;;
43841;SDS011;29495;49.970;20.842;2022-11-11T18:59:23;35.72;;;17.77;;
43841;SDS011;29495;49.970;20.842;2022-11-11T19:02:07;36.75;;;20.15;;
43841;SDS011;29495;49.970;20.842;2022-11-11T19:04:52;49.22;;;23.92;;
43841;SDS011;29495;49.970;20.842;2022-11-11T19:07:36;51.30;;;26.42;;
43841;SDS011;29495;49.970;20.842;2022-11-11T19:10:21;57.47;;;28.55;;
43841;SDS011;29495;49.970;20.842;2022-11-11T19:13:08;50.97;;;25.83;;
43841;SDS011;29495;49.970;20.842;2022-11-11T19:15:52;51.67;;;26.55;;
43841;SDS011;29495;49.970;20.842;2022-11-11T19:18:37;47.55;;;24.80;;
43841;SDS011;29495;49.970;20.842;2022-11-11T19:21:23;47.22;;;23.50;;
43841;SDS011;29495;49.970;20.842;2022-11-11T19:24:10;44.33;;;23.08;;
43841;SDS011;29495;49.970;20.842;2022-11-11T19:26:55;37.78;;;19.73;;
43841;SDS011;29495;49.970;20.842;2022-11-11T19:29:40;33.25;;;18.17;;
43841;SDS011;29495;49.970;20.842;2022-11-11T19:32:24;30.05;;;16.92;;